Time;durP1;ratioP1;P1;durP2;ratioP2;P2;SDS_P1;SDS_P2;PMS_P1;PMS_P2;Temp;Humidity;BMP_temperature;BMP_pressure;BME280_temperature;BME280_humidity;BME280_pressure;Samples;Min_cycle;Max_cycle;Signal;HPM_P1;HPM_P2
2022/09/11 00:00:29;;;;;;;5.65;2.40;;;;;;;;;;5015485;28;20477;-85
2022/09/11 00:02:55;;;;;;;5.97;2.50;;;;;;;;;;5032300;28;20059;-81
2022/09/11 00:05:21;;;;;;;7.35;2.80;;;;;;;;;;5069874;28;20059;-83
2022/09/11 00:07:48;;;;;;;5.28;2.47;;;;;;;;;;5072848;28;20665;-81
2022/09/11 00:10:14;;;;;;;3.15;2.10;;;;;;;;;;5071094;28;20056;-82
2022/09/11 00:12:41;;;;;;;2.83;2.00;;;;;;;;;;5071550;28;20048;-82
2022/09/11 00:15:08;;;;;;;3.92;2.40;;;;;;;;;;5072377;28;20044;-82
2022/09/11 00:17:34;;;;;;;5.90;2.92;;;;;;;;;;5071976;28;20071;-82
2022/09/11 00:20:01;;;;;;;5.80;3.00;;;;;;;;;;5071540;28;20056;-83
2022/09/11 00:22:27;;;;;;;5.18;3.17;;;;;;;;;;5054847;28;20404;-82
2022/09/11 00:24:54;;;;;;;7.40;3.15;;;;;;;;;;5071450;28;20052;-82
2022/09/11 00:27:20;;;;;;;5.82;3.58;;;;;;;;;;5071710;28;20044;-83
2022/09/11 00:29:48;;;;;;;8.00;3.42;;;;;;;;;;5072011;28;20171;-82
2022/09/11 00:32:14;;;;;;;6.55;3.28;;;;;;;;;;5054436;28;20052;-82
2022/09/11 00:34:41;;;;;;;6.78;3.45;;;;;;;;;;5072121;28;20045;-82
2022/09/11 00:37:08;;;;;;;6.05;3.30;;;;;;;;;;5072187;28;20056;-81
2022/09/11 00:39:34;;;;;;;7.05;3.97;;;;;;;;;;5053628;28;20052;-82
2022/09/11 00:42:01;;;;;;;6.82;3.90;;;;;;;;;;5071635;28;20114;-82
2022/09/11 00:44:27;;;;;;;5.30;3.80;;;;;;;;;;5072344;28;20098;-82
2022/09/11 00:47:04;;;;;;;5.80;4.03;;;;;;;;;;5072040;28;20055;-83
2022/09/11 00:49:35;;;;;;;7.13;3.95;;;;;;;;;;5070911;28;20048;-82
2022/09/11 00:52:04;;;;;;;8.10;4.40;;;;;;;;;;5055600;28;20063;-81
2022/09/11 00:54:32;;;;;;;5.80;4.32;;;;;;;;;;5054717;28;20589;-82
2022/09/11 00:57:01;;;;;;;10.80;4.25;;;;;;;;;;5054948;28;20056;-82
2022/09/11 00:59:29;;;;;;;6.75;4.10;;;;;;;;;;5054955;28;20080;-82
2022/09/11 01:01:55;;;;;;;6.78;4.00;;;;;;;;;;5072649;28;20052;-82
2022/09/11 01:04:23;;;;;;;5.75;4.28;;;;;;;;;;5061027;28;20303;-82
2022/09/11 01:06:54;;;;;;;6.80;4.18;;;;;;;;;;5034881;28;20049;-82
2022/09/11 01:09:21;;;;;;;7.30;4.25;;;;;;;;;;5052115;28;20091;-83
2022/09/11 01:11:52;;;;;;;9.75;4.53;;;;;;;;;;5036178;28;20065;-83
2022/09/11 01:14:31;;;;;;;4.35;3.92;;;;;;;;;;5053491;28;20063;-83
2022/09/11 01:17:04;;;;;;;5.43;3.90;;;;;;;;;;5054565;28;20501;-81
2022/09/11 01:19:30;;;;;;;6.35;4.10;;;;;;;;;;5036005;28;20562;-82
2022/09/11 01:22:06;;;;;;;6.97;4.30;;;;;;;;;;5035428;28;20049;-81
2022/09/11 01:24:51;;;;;;;7.82;4.55;;;;;;;;;;5036738;28;20053;-83
2022/09/11 01:27:38;;;;;;;8.03;4.40;;;;;;;;;;5037099;28;20118;-82
2022/09/11 01:30:09;;;;;;;6.53;4.80;;;;;;;;;;5034157;28;20056;-83
2022/09/11 01:33:00;;;;;;;6.85;4.65;;;;;;;;;;5052355;28;20049;-81
2022/09/11 01:35:27;;;;;;;7.63;5.07;;;;;;;;;;5051647;28;20569;-83
2022/09/11 01:37:57;;;;;;;7.28;4.72;;;;;;;;;;5033985;28;20638;-82
2022/09/11 01:40:29;;;;;;;11.23;4.50;;;;;;;;;;5028195;28;20136;-83
2022/09/11 01:43:03;;;;;;;7.85;4.10;;;;;;;;;;5031859;28;20398;-82
2022/09/11 01:45:32;;;;;;;8.50;4.57;;;;;;;;;;5034559;28;20045;-83
2022/09/11 01:48:01;;;;;;;6.30;4.90;;;;;;;;;;5033497;28;20040;-83
2022/09/11 01:50:28;;;;;;;9.20;5.03;;;;;;;;;;5033749;28;20440;-82
2022/09/11 01:52:59;;;;;;;7.90;5.43;;;;;;;;;;5034723;28;20427;-81
2022/09/11 01:55:28;;;;;;;8.65;6.07;;;;;;;;;;5035663;28;20092;-81
2022/09/11 01:58:00;;;;;;;9.55;5.63;;;;;;;;;;5053335;28;20041;-82
2022/09/11 02:00:27;;;;;;;10.15;5.70;;;;;;;;;;5035489;28;20172;-83
2022/09/11 02:02:58;;;;;;;7.13;5.10;;;;;;;;;;5055452;28;20049;-83
2022/09/11 02:05:31;;;;;;;9.98;5.57;;;;;;;;;;5035786;28;20057;-82
2022/09/11 02:07:57;;;;;;;9.55;5.22;;;;;;;;;;5034251;28;20049;-82
2022/09/11 02:10:44;;;;;;;8.63;5.63;;;;;;;;;;5031883;28;20101;-82
2022/09/11 02:13:13;;;;;;;8.27;5.68;;;;;;;;;;5052222;28;20041;-82
2022/09/11 02:15:42;;;;;;;9.02;5.43;;;;;;;;;;5050325;28;20041;-81
2022/09/11 02:18:16;;;;;;;9.75;5.47;;;;;;;;;;5048122;28;20105;-81
2022/09/11 02:20:44;;;;;;;8.82;5.57;;;;;;;;;;5048482;28;20049;-81
2022/09/11 02:23:10;;;;;;;7.18;5.45;;;;;;;;;;5048487;28;20052;-82
2022/09/11 02:25:36;;;;;;;9.35;5.78;;;;;;;;;;5048860;28;20116;-81
2022/09/11 02:28:03;;;;;;;12.07;4.97;;;;;;;;;;5047299;28;20041;-81
2022/09/11 02:30:29;;;;;;;8.75;5.55;;;;;;;;;;5047600;28;20049;-81
2022/09/11 02:32:55;;;;;;;9.63;5.18;;;;;;;;;;5032062;28;20056;-82
2022/09/11 02:35:25;;;;;;;8.27;4.95;;;;;;;;;;5052870;28;20056;-82
2022/09/11 02:37:58;;;;;;;9.73;5.35;;;;;;;;;;5052124;28;20072;-82
2022/09/11 02:40:37;;;;;;;9.32;5.80;;;;;;;;;;5052184;28;20057;-80
2022/09/11 02:43:07;;;;;;;12.18;5.68;;;;;;;;;;5051123;28;20041;-83
2022/09/11 02:45:34;;;;;;;10.98;5.70;;;;;;;;;;5052774;28;20053;-81
2022/09/11 02:48:05;;;;;;;9.90;5.38;;;;;;;;;;5051432;28;20121;-81
2022/09/11 02:50:32;;;;;;;10.98;5.50;;;;;;;;;;5051869;28;20045;-81
2022/09/11 02:53:10;;;;;;;10.13;5.10;;;;;;;;;;5052497;28;20057;-82
2022/09/11 02:55:37;;;;;;;9.90;5.50;;;;;;;;;;5054813;28;20045;-83
2022/09/11 02:58:25;;;;;;;8.77;5.38;;;;;;;;;;5056124;28;20049;-84
2022/09/11 03:00:55;;;;;;;11.10;5.68;;;;;;;;;;5056927;28;20086;-83
2022/09/11 03:03:21;;;;;;;9.32;5.55;;;;;;;;;;5069968;28;20241;-83
2022/09/11 03:05:48;;;;;;;7.13;5.20;;;;;;;;;;5061081;28;20053;-83
2022/09/11 03:08:16;;;;;;;11.50;6.07;;;;;;;;;;5070801;28;20049;-80
2022/09/11 03:10:45;;;;;;;8.57;5.00;;;;;;;;;;5053267;28;20049;-83
2022/09/11 03:13:13;;;;;;;7.03;5.35;;;;;;;;;;5035559;28;20053;-81
2022/09/11 03:15:42;;;;;;;9.23;5.55;;;;;;;;;;5054447;28;20120;-81
2022/09/11 03:18:09;;;;;;;8.98;5.07;;;;;;;;;;5036316;28;20460;-80
2022/09/11 03:20:35;;;;;;;9.25;5.47;;;;;;;;;;5053550;28;20060;-83
2022/09/11 03:23:09;;;;;;;7.85;5.10;;;;;;;;;;5035136;28;20049;-82
2022/09/11 03:25:35;;;;;;;6.63;4.90;;;;;;;;;;5036814;28;20063;-82
2022/09/11 03:28:03;;;;;;;9.23;4.90;;;;;;;;;;5053877;28;20048;-81
2022/09/11 03:30:29;;;;;;;7.07;4.40;;;;;;;;;;5055807;28;20045;-82
2022/09/11 03:32:57;;;;;;;7.72;4.70;;;;;;;;;;5056830;28;20056;-83
2022/09/11 03:35:24;;;;;;;8.90;5.07;;;;;;;;;;5063010;28;20044;-82
2022/09/11 03:37:50;;;;;;;11.48;4.97;;;;;;;;;;5035868;28;20059;-82
2022/09/11 03:40:17;;;;;;;6.00;4.35;;;;;;;;;;5054346;28;20094;-82
2022/09/11 03:42:44;;;;;;;5.88;4.70;;;;;;;;;;5053477;28;20048;-82
2022/09/11 03:45:10;;;;;;;7.32;4.47;;;;;;;;;;5055755;28;20424;-82
2022/09/11 03:47:37;;;;;;;8.60;4.60;;;;;;;;;;5057994;28;20041;-83
2022/09/11 03:50:03;;;;;;;8.40;4.68;;;;;;;;;;5056982;28;20049;-81
2022/09/11 03:52:33;;;;;;;9.68;4.55;;;;;;;;;;5057015;28;20540;-82
2022/09/11 03:54:59;;;;;;;8.43;4.65;;;;;;;;;;5057154;28;20056;-83
2022/09/11 03:57:26;;;;;;;5.75;4.70;;;;;;;;;;5057591;28;20530;-82
2022/09/11 03:59:54;;;;;;;7.05;4.85;;;;;;;;;;5038730;28;20508;-83
2022/09/11 04:02:22;;;;;;;11.43;5.05;;;;;;;;;;5037011;28;20171;-82
2022/09/11 04:04:48;;;;;;;10.05;5.10;;;;;;;;;;5037882;28;20053;-83
2022/09/11 04:07:15;;;;;;;8.48;5.10;;;;;;;;;;5037384;28;20465;-83
2022/09/11 04:09:41;;;;;;;9.25;4.53;;;;;;;;;;5035842;28;20049;-83
2022/09/11 04:12:08;;;;;;;6.80;4.65;;;;;;;;;;5052226;28;20544;-84
2022/09/11 04:14:34;;;;;;;7.55;4.93;;;;;;;;;;5052715;28;20492;-82
2022/09/11 04:17:00;;;;;;;7.22;4.82;;;;;;;;;;5036345;28;20144;-83
2022/09/11 04:19:28;;;;;;;7.80;5.25;;;;;;;;;;5052594;28;20052;-84
2022/09/11 04:21:54;;;;;;;8.52;5.32;;;;;;;;;;5064305;28;20036;-84
2022/09/11 04:24:20;;;;;;;8.20;6.13;;;;;;;;;;5071225;28;20053;-84
2022/09/11 04:26:47;;;;;;;7.40;5.43;;;;;;;;;;5071503;28;20110;-86
2022/09/11 04:29:13;;;;;;;9.98;6.20;;;;;;;;;;5069603;28;20072;-85
2022/09/11 04:31:40;;;;;;;9.80;6.30;;;;;;;;;;5071733;28;20090;-86
2022/09/11 04:34:08;;;;;;;12.90;6.53;;;;;;;;;;5054425;28;20084;-83
2022/09/11 04:36:34;;;;;;;11.75;6.32;;;;;;;;;;5069813;28;20033;-82
2022/09/11 04:39:00;;;;;;;12.43;6.68;;;;;;;;;;5068134;28;20041;-85
2022/09/11 04:41:27;;;;;;;12.35;7.32;;;;;;;;;;5056446;28;20514;-86
2022/09/11 04:43:56;;;;;;;9.68;6.95;;;;;;;;;;5055907;28;20037;-85
2022/09/11 04:46:29;;;;;;;12.80;7.57;;;;;;;;;;5039004;28;20048;-83
2022/09/11 04:48:58;;;;;;;16.90;7.72;;;;;;;;;;5054027;28;20690;-81
2022/09/11 04:51:25;;;;;;;15.90;8.45;;;;;;;;;;5052926;28;20052;-84
2022/09/11 04:53:56;;;;;;;12.55;7.95;;;;;;;;;;5038080;28;20049;-83
2022/09/11 04:56:28;;;;;;;11.38;7.65;;;;;;;;;;5035484;28;20056;-82
2022/09/11 04:58:55;;;;;;;13.63;8.27;;;;;;;;;;5050580;28;20150;-82
2022/09/11 05:01:22;;;;;;;16.67;9.18;;;;;;;;;;5032127;28;20440;-81
2022/09/11 05:03:48;;;;;;;13.45;9.13;;;;;;;;;;5045253;28;20055;-81
2022/09/11 05:06:15;;;;;;;14.40;8.77;;;;;;;;;;5031389;28;20054;-81
2022/09/11 05:08:43;;;;;;;13.32;9.00;;;;;;;;;;5030960;28;20045;-81
2022/09/11 05:11:13;;;;;;;15.90;9.35;;;;;;;;;;5031119;28;20045;-79
2022/09/11 05:13:40;;;;;;;16.27;9.85;;;;;;;;;;5031029;28;20061;-81
2022/09/11 05:16:08;;;;;;;20.60;10.00;;;;;;;;;;5030498;28;20057;-82
2022/09/11 05:18:34;;;;;;;16.30;10.20;;;;;;;;;;5030162;28;20106;-82
2022/09/11 05:21:02;;;;;;;16.73;10.27;;;;;;;;;;5032095;28;20048;-80
2022/09/11 05:23:30;;;;;;;16.02;10.15;;;;;;;;;;5030734;28;20053;-81
2022/09/11 05:26:01;;;;;;;18.83;11.18;;;;;;;;;;5031207;28;20049;-82
2022/09/11 05:28:28;;;;;;;19.13;10.60;;;;;;;;;;5030508;28;20049;-82
2022/09/11 05:30:54;;;;;;;16.83;10.57;;;;;;;;;;5033010;28;20049;-81
2022/09/11 05:33:24;;;;;;;18.67;10.98;;;;;;;;;;5034311;28;20049;-83
2022/09/11 05:35:52;;;;;;;17.52;11.40;;;;;;;;;;5033823;28;20052;-84
2022/09/11 05:38:19;;;;;;;16.85;10.82;;;;;;;;;;5051236;28;20413;-80
2022/09/11 05:40:47;;;;;;;17.60;11.13;;;;;;;;;;5051771;28;20056;-84
2022/09/11 05:43:18;;;;;;;22.60;11.60;;;;;;;;;;5036756;28;20378;-81
2022/09/11 05:45:52;;;;;;;17.20;10.63;;;;;;;;;;5049076;28;20078;-84
2022/09/11 05:48:18;;;;;;;19.58;10.57;;;;;;;;;;5038817;28;20045;-82
2022/09/11 05:50:52;;;;;;;18.23;11.55;;;;;;;;;;5028111;28;20429;-82
2022/09/11 05:53:19;;;;;;;19.75;12.05;;;;;;;;;;5009861;28;20056;-82
2022/09/11 05:55:46;;;;;;;19.40;12.32;;;;;;;;;;5026774;28;20052;-81
2022/09/11 05:58:14;;;;;;;23.00;13.82;;;;;;;;;;5027686;28;20231;-82
2022/09/11 06:00:40;;;;;;;24.67;14.77;;;;;;;;;;5028749;28;20053;-81
2022/09/11 06:03:07;;;;;;;27.23;17.33;;;;;;;;;;5045670;28;20509;-83
2022/09/11 06:05:39;;;;;;;30.33;18.10;;;;;;;;;;5036570;28;20127;-83
2022/09/11 06:08:07;;;;;;;29.65;16.58;;;;;;;;;;5049554;28;20045;-82
2022/09/11 06:10:34;;;;;;;33.65;20.08;;;;;;;;;;5054314;28;20251;-84
2022/09/11 06:13:01;;;;;;;33.50;19.67;;;;;;;;;;5054133;28;20053;-83
2022/09/11 06:15:28;;;;;;;39.28;22.90;;;;;;;;;;5035764;28;20049;-83
2022/09/11 06:18:12;;;;;;;32.30;19.77;;;;;;;;;;5051139;28;20524;-84
2022/09/11 06:20:39;;;;;;;39.42;21.42;;;;;;;;;;5029888;28;20069;-84
2022/09/11 06:23:05;;;;;;;32.80;20.85;;;;;;;;;;5053419;28;20045;-84
2022/09/11 06:25:35;;;;;;;35.03;19.38;;;;;;;;;;5017924;28;20109;-84
2022/09/11 06:28:02;;;;;;;33.00;19.05;;;;;;;;;;5069364;28;20056;-85
2022/09/11 06:30:28;;;;;;;34.85;19.67;;;;;;;;;;5071297;28;20032;-82
2022/09/11 06:32:55;;;;;;;30.45;18.60;;;;;;;;;;5040229;28;20055;-81
2022/09/11 06:35:25;;;;;;;33.25;20.25;;;;;;;;;;5029863;28;20296;-79
2022/09/11 06:37:51;;;;;;;31.67;18.67;;;;;;;;;;5043253;28;20448;-80
2022/09/11 06:40:18;;;;;;;31.35;21.48;;;;;;;;;;5031650;28;20052;-82
2022/09/11 06:42:44;;;;;;;32.90;20.10;;;;;;;;;;5049174;28;20061;-83
2022/09/11 06:45:10;;;;;;;32.40;21.35;;;;;;;;;;5053653;28;20051;-82
2022/09/11 06:47:37;;;;;;;30.30;19.88;;;;;;;;;;5050799;28;20053;-85
2022/09/11 06:50:03;;;;;;;28.63;19.45;;;;;;;;;;5049948;28;20080;-84
2022/09/11 06:52:33;;;;;;;24.90;17.23;;;;;;;;;;5049481;28;20049;-84
2022/09/11 06:55:01;;;;;;;27.52;17.75;;;;;;;;;;5049080;28;20433;-84
2022/09/11 06:57:27;;;;;;;21.25;15.20;;;;;;;;;;5049435;28;20103;-84
2022/09/11 06:59:53;;;;;;;20.63;15.82;;;;;;;;;;5050396;28;20468;-85
2022/09/11 07:02:20;;;;;;;21.30;15.60;;;;;;;;;;5045487;28;20064;-84
2022/09/11 07:04:47;;;;;;;22.08;15.38;;;;;;;;;;5061783;28;20121;-85
2022/09/11 07:07:13;;;;;;;24.77;16.10;;;;;;;;;;5046072;28;20140;-86
2022/09/11 07:09:39;;;;;;;22.95;17.90;;;;;;;;;;5041051;28;20045;-84
2022/09/11 07:12:06;;;;;;;29.85;20.90;;;;;;;;;;5035805;28;20064;-84
2022/09/11 07:14:33;;;;;;;28.00;20.55;;;;;;;;;;5052346;28;20053;-84
2022/09/11 07:17:00;;;;;;;29.83;21.75;;;;;;;;;;5052043;28;20049;-85
2022/09/11 07:19:26;;;;;;;30.40;21.67;;;;;;;;;;5049967;28;20049;-83
2022/09/11 07:21:52;;;;;;;34.38;23.23;;;;;;;;;;5051375;28;20049;-83
2022/09/11 07:24:22;;;;;;;34.33;23.75;;;;;;;;;;5034805;28;20060;-85
2022/09/11 07:26:48;;;;;;;38.63;24.55;;;;;;;;;;5024156;28;20100;-86
2022/09/11 07:29:16;;;;;;;43.40;28.73;;;;;;;;;;5035891;28;20053;-84
2022/09/11 07:31:43;;;;;;;43.22;28.08;;;;;;;;;;5053067;28;20059;-84
2022/09/11 07:34:23;;;;;;;45.67;28.30;;;;;;;;;;5034035;28;20060;-82
2022/09/11 07:36:57;;;;;;;47.78;29.02;;;;;;;;;;5036565;28;20118;-83
2022/09/11 07:39:24;;;;;;;46.10;27.65;;;;;;;;;;5033600;28;20057;-87
2022/09/11 07:41:51;;;;;;;43.08;28.50;;;;;;;;;;5034525;28;20547;-85
2022/09/11 07:44:18;;;;;;;42.88;27.52;;;;;;;;;;5052154;28;20112;-84
2022/09/11 07:46:45;;;;;;;39.38;26.17;;;;;;;;;;5035521;28;20124;-85
2022/09/11 07:49:11;;;;;;;43.33;25.90;;;;;;;;;;5055051;28;20111;-85
2022/09/11 07:51:38;;;;;;;39.38;26.13;;;;;;;;;;5055294;28;20059;-85
2022/09/11 07:54:04;;;;;;;39.92;26.35;;;;;;;;;;5039632;28;20056;-85
2022/09/11 07:56:35;;;;;;;38.15;26.52;;;;;;;;;;5046924;28;20079;-86
2022/09/11 07:59:05;;;;;;;38.65;25.45;;;;;;;;;;5053937;28;20216;-85
2022/09/11 08:01:32;;;;;;;36.10;23.05;;;;;;;;;;5057139;28;20049;-84
2022/09/11 08:04:02;;;;;;;32.17;21.02;;;;;;;;;;5035658;28;20470;-86
2022/09/11 08:06:31;;;;;;;24.35;17.20;;;;;;;;;;5053526;28;20199;-86
2022/09/11 08:09:00;;;;;;;24.77;16.65;;;;;;;;;;5051765;28;20387;-85
2022/09/11 08:11:30;;;;;;;24.75;16.38;;;;;;;;;;5055024;28;20076;-87
2022/09/11 08:13:57;;;;;;;26.05;17.88;;;;;;;;;;5049829;28;20348;-86
2022/09/11 08:16:24;;;;;;;24.23;16.58;;;;;;;;;;5047597;28;20059;-85
2022/09/11 08:18:51;;;;;;;24.38;17.17;;;;;;;;;;5050469;28;20075;-82
2022/09/11 08:21:20;;;;;;;26.02;17.35;;;;;;;;;;5049243;28;20045;-80
2022/09/11 08:23:47;;;;;;;24.92;17.45;;;;;;;;;;5036721;28;20136;-84
2022/09/11 08:26:20;;;;;;;23.13;16.38;;;;;;;;;;5055876;28;20578;-84
2022/09/11 08:28:49;;;;;;;24.17;15.93;;;;;;;;;;5030786;28;20049;-84
2022/09/11 08:31:19;;;;;;;26.45;15.95;;;;;;;;;;5047764;28;20044;-80
2022/09/11 08:33:48;;;;;;;19.73;14.73;;;;;;;;;;5048500;28;20404;-83
2022/09/11 08:36:18;;;;;;;21.10;14.27;;;;;;;;;;5028611;28;20148;-84
2022/09/11 08:38:47;;;;;;;19.00;12.85;;;;;;;;;;5019163;28;20095;-83
2022/09/11 08:41:40;;;;;;;20.17;12.80;;;;;;;;;;5046146;28;20053;-82
2022/09/11 08:44:10;;;;;;;18.25;12.70;;;;;;;;;;5041534;28;20053;-87
2022/09/11 08:46:39;;;;;;;19.08;13.40;;;;;;;;;;5062463;28;20041;-84
2022/09/11 08:49:25;;;;;;;15.00;10.25;;;;;;;;;;5032739;28;20059;-84
2022/09/11 08:51:53;;;;;;;15.95;9.43;;;;;;;;;;5032945;28;20249;-86
2022/09/11 08:54:28;;;;;;;13.82;9.23;;;;;;;;;;5032846;28;20053;-85
2022/09/11 08:56:59;;;;;;;11.27;7.60;;;;;;;;;;5041345;28;20065;-86
2022/09/11 08:59:41;;;;;;;10.55;8.02;;;;;;;;;;5034153;28;20053;-87
2022/09/11 09:02:27;;;;;;;12.05;7.88;;;;;;;;;;5051385;28;20063;-87
2022/09/11 09:05:13;;;;;;;10.20;7.55;;;;;;;;;;5031218;28;20053;-85
2022/09/11 09:07:43;;;;;;;14.50;8.40;;;;;;;;;;5046084;28;20061;-88
2022/09/11 09:10:28;;;;;;;13.48;7.85;;;;;;;;;;5025456;28;20738;-86
2022/09/11 09:12:55;;;;;;;17.08;9.85;;;;;;;;;;5027262;28;20537;-84
2022/09/11 09:15:33;;;;;;;12.45;7.47;;;;;;;;;;5030463;28;20523;-86
2022/09/11 09:18:18;;;;;;;13.18;7.25;;;;;;;;;;5043478;28;20052;-85
2022/09/11 09:20:48;;;;;;;10.07;7.10;;;;;;;;;;5044684;28;20052;-83
2022/09/11 09:23:26;;;;;;;9.63;6.75;;;;;;;;;;5043950;28;20223;-83
2022/09/11 09:25:53;;;;;;;11.00;7.75;;;;;;;;;;5040637;28;20048;-86
2022/09/11 09:28:21;;;;;;;11.18;8.02;;;;;;;;;;5040569;28;20494;-84
2022/09/11 09:30:58;;;;;;;12.00;7.65;;;;;;;;;;5049287;28;20049;-86
2022/09/11 09:33:37;;;;;;;12.98;8.60;;;;;;;;;;5047242;28;20045;-86
2022/09/11 09:36:13;;;;;;;14.48;8.32;;;;;;;;;;5046798;28;20060;-84
2022/09/11 09:38:39;;;;;;;13.73;9.50;;;;;;;;;;5028967;28;20048;-88
2022/09/11 09:41:23;;;;;;;13.60;9.15;;;;;;;;;;5046620;28;20057;-86
2022/09/11 09:43:50;;;;;;;15.40;9.88;;;;;;;;;;5030133;28;20052;-85
2022/09/11 09:46:19;;;;;;;15.07;10.13;;;;;;;;;;5051016;28;20052;-86
2022/09/11 09:48:46;;;;;;;23.83;15.23;;;;;;;;;;5054738;28;20065;-90
2022/09/11 09:51:12;;;;;;;26.42;16.98;;;;;;;;;;5071149;28;20047;-87
2022/09/11 09:53:42;;;;;;;21.88;14.82;;;;;;;;;;5054192;28;20037;-87
2022/09/11 09:56:11;;;;;;;22.30;14.18;;;;;;;;;;5047764;28;20053;-84
2022/09/11 09:58:41;;;;;;;24.83;18.15;;;;;;;;;;5008731;28;20045;-84
2022/09/11 10:01:26;;;;;;;31.17;18.60;;;;;;;;;;5028373;28;20056;-81
2022/09/11 10:04:12;;;;;;;39.80;22.70;;;;;;;;;;5040809;28;20041;-83
2022/09/11 10:06:38;;;;;;;29.23;19.90;;;;;;;;;;5047706;28;20049;-82
2022/09/11 10:09:05;;;;;;;35.58;20.30;;;;;;;;;;5019839;28;20144;-82
2022/09/11 10:11:31;;;;;;;34.15;19.20;;;;;;;;;;5028894;28;20045;-84
2022/09/11 10:13:58;;;;;;;34.05;19.45;;;;;;;;;;5046211;28;20398;-84
2022/09/11 10:16:26;;;;;;;27.85;17.45;;;;;;;;;;5046903;28;20060;-85
2022/09/11 10:18:53;;;;;;;26.90;16.05;;;;;;;;;;5046988;28;20053;-85
2022/09/11 10:21:21;;;;;;;25.23;14.68;;;;;;;;;;5028564;28;20052;-82
2022/09/11 10:23:52;;;;;;;27.95;17.63;;;;;;;;;;5029719;28;20041;-82
2022/09/11 10:26:21;;;;;;;39.05;21.50;;;;;;;;;;5037207;28;20053;-82
2022/09/11 10:28:48;;;;;;;31.75;20.65;;;;;;;;;;5030174;28;20053;-81
2022/09/11 10:31:15;;;;;;;35.38;19.88;;;;;;;;;;5036895;28;20061;-83
2022/09/11 10:33:54;;;;;;;36.75;21.50;;;;;;;;;;5038801;28;20064;-84
2022/09/11 10:36:26;;;;;;;37.30;20.80;;;;;;;;;;5052071;28;20504;-83
2022/09/11 10:38:52;;;;;;;39.58;21.95;;;;;;;;;;5043487;28;20048;-84
2022/09/11 10:41:21;;;;;;;40.00;23.92;;;;;;;;;;5044170;28;20049;-80
2022/09/11 10:44:00;;;;;;;47.80;25.83;;;;;;;;;;5023572;28;20060;-80
2022/09/11 10:46:28;;;;;;;48.38;24.95;;;;;;;;;;5042824;28;20052;-79
2022/09/11 10:49:05;;;;;;;45.75;26.60;;;;;;;;;;5044323;28;20574;-83
2022/09/11 10:51:33;;;;;;;49.88;26.73;;;;;;;;;;5042431;28;20688;-81
2022/09/11 10:53:59;;;;;;;54.35;28.42;;;;;;;;;;5043891;28;20056;-83
2022/09/11 10:56:26;;;;;;;52.80;29.23;;;;;;;;;;5030186;28;20040;-82
2022/09/11 10:58:59;;;;;;;50.70;30.23;;;;;;;;;;5047127;28;20049;-84
2022/09/11 11:01:26;;;;;;;58.95;32.45;;;;;;;;;;5032054;28;20057;-85
2022/09/11 11:03:54;;;;;;;58.20;33.17;;;;;;;;;;5030470;28;20049;-84
2022/09/11 11:06:39;;;;;;;58.95;33.67;;;;;;;;;;5051196;28;20136;-84
2022/09/11 11:09:24;;;;;;;56.47;32.13;;;;;;;;;;5049848;28;20049;-83
2022/09/11 11:12:02;;;;;;;54.60;33.13;;;;;;;;;;5031031;28;20131;-84
2022/09/11 11:14:28;;;;;;;59.83;32.95;;;;;;;;;;5030999;28;20053;-84
2022/09/11 11:17:10;;;;;;;56.60;32.97;;;;;;;;;;5033823;28;20441;-86
2022/09/11 11:19:37;;;;;;;57.50;33.60;;;;;;;;;;5053220;28;20065;-84
2022/09/11 11:22:07;;;;;;;56.65;31.33;;;;;;;;;;5031699;28;20040;-84
2022/09/11 11:24:59;;;;;;;55.75;31.25;;;;;;;;;;5052158;28;20052;-84
2022/09/11 11:27:45;;;;;;;60.80;30.92;;;;;;;;;;5034871;28;20052;-84
2022/09/11 11:30:14;;;;;;;54.78;28.05;;;;;;;;;;5051327;28;20132;-85
2022/09/11 11:32:42;;;;;;;58.13;29.17;;;;;;;;;;5049311;28;20497;-84
2022/09/11 11:35:13;;;;;;;54.45;28.75;;;;;;;;;;5029608;28;20067;-84
2022/09/11 11:37:41;;;;;;;51.05;25.73;;;;;;;;;;5050876;28;20057;-82
2022/09/11 11:40:20;;;;;;;47.63;25.13;;;;;;;;;;5049730;28;20049;-85
2022/09/11 11:42:49;;;;;;;51.20;25.45;;;;;;;;;;5049559;28;20068;-84
2022/09/11 11:45:24;;;;;;;53.45;24.88;;;;;;;;;;5051058;28;20072;-83
2022/09/11 11:47:51;;;;;;;56.95;25.77;;;;;;;;;;5050287;28;20045;-82
2022/09/11 11:50:26;;;;;;;53.00;26.95;;;;;;;;;;5053028;28;20527;-85
2022/09/11 11:53:18;;;;;;;63.25;29.95;;;;;;;;;;5054994;28;20132;-85
2022/09/11 11:56:21;;;;;;;59.95;28.77;;;;;;;;;;5037986;28;20516;-84
2022/09/11 11:58:48;;;;;;;56.47;27.88;;;;;;;;;;5022888;28;20563;-83
2022/09/11 12:01:43;;;;;;;52.35;26.38;;;;;;;;;;5047944;28;20670;-83
2022/09/11 12:04:23;;;;;;;57.77;26.60;;;;;;;;;;4999664;28;20077;-83
2022/09/11 12:06:50;;;;;;;51.13;25.58;;;;;;;;;;5031227;28;20367;-82
2022/09/11 12:09:17;;;;;;;49.05;25.10;;;;;;;;;;5047961;28;20052;-83
2022/09/11 12:11:48;;;;;;;49.85;26.05;;;;;;;;;;5040150;28;20049;-81
2022/09/11 12:14:33;;;;;;;41.45;24.20;;;;;;;;;;5027828;28;20053;-82
2022/09/11 12:17:21;;;;;;;42.83;23.50;;;;;;;;;;5042134;28;20052;-85
2022/09/11 12:20:06;;;;;;;42.15;23.88;;;;;;;;;;5047197;28;20053;-83
2022/09/11 12:22:37;;;;;;;39.95;23.30;;;;;;;;;;5047914;28;20052;-85
2022/09/11 12:25:24;;;;;;;41.50;22.65;;;;;;;;;;5047016;28;20044;-82
2022/09/11 12:27:52;;;;;;;39.53;21.58;;;;;;;;;;5029742;28;20053;-83
2022/09/11 12:30:27;;;;;;;40.25;21.15;;;;;;;;;;5047251;28;20562;-82
2022/09/11 12:33:00;;;;;;;40.72;19.20;;;;;;;;;;5029800;28;20063;-86
2022/09/11 12:35:30;;;;;;;34.50;19.58;;;;;;;;;;5048488;28;20053;-85
2022/09/11 12:37:56;;;;;;;28.92;19.17;;;;;;;;;;5017704;28;20064;-82
2022/09/11 12:40:23;;;;;;;34.05;19.33;;;;;;;;;;5010883;28;20060;-83
2022/09/11 12:42:52;;;;;;;35.50;18.90;;;;;;;;;;5046659;28;20068;-84
2022/09/11 12:45:35;;;;;;;31.88;17.60;;;;;;;;;;5050075;28;20488;-81
2022/09/11 12:48:07;;;;;;;31.38;16.58;;;;;;;;;;5049947;28;20045;-84
2022/09/11 12:50:34;;;;;;;23.00;12.60;;;;;;;;;;5067558;28;20032;-85
2022/09/11 12:53:02;;;;;;;23.08;11.73;;;;;;;;;;5069531;28;20047;-85
2022/09/11 12:55:30;;;;;;;20.02;10.82;;;;;;;;;;5043865;28;20061;-84
2022/09/11 12:58:01;;;;;;;18.83;10.48;;;;;;;;;;5040514;28;20060;-83
2022/09/11 13:00:40;;;;;;;17.98;10.88;;;;;;;;;;5048471;28;20443;-82
2022/09/11 13:03:15;;;;;;;15.15;9.73;;;;;;;;;;5034977;28;20087;-84
2022/09/11 13:05:43;;;;;;;16.92;8.85;;;;;;;;;;5030427;28;20049;-83
2022/09/11 13:08:17;;;;;;;17.13;8.48;;;;;;;;;;5030581;28;20501;-82
2022/09/11 13:10:45;;;;;;;12.65;7.63;;;;;;;;;;5040887;28;20068;-83
2022/09/11 13:13:31;;;;;;;16.00;7.85;;;;;;;;;;5060485;28;20052;-84
2022/09/11 13:15:57;;;;;;;19.52;7.22;;;;;;;;;;5063797;28;20075;-87
2022/09/11 13:18:24;;;;;;;14.05;7.40;;;;;;;;;;5067518;28;20191;-84
2022/09/11 13:21:17;;;;;;;11.95;7.82;;;;;;;;;;5063142;28;20047;-81
2022/09/11 13:23:48;;;;;;;12.98;7.60;;;;;;;;;;5044233;28;20057;-83
2022/09/11 13:26:17;;;;;;;12.73;7.18;;;;;;;;;;5045363;28;20049;-83
2022/09/11 13:28:45;;;;;;;12.85;7.95;;;;;;;;;;5045489;28;20048;-82
2022/09/11 13:31:20;;;;;;;13.57;7.70;;;;;;;;;;5026579;28;20044;-81
2022/09/11 13:33:48;;;;;;;13.00;7.80;;;;;;;;;;5044132;28;20053;-81
2022/09/11 13:36:15;;;;;;;12.30;7.75;;;;;;;;;;5027135;28;20053;-82
2022/09/11 13:38:42;;;;;;;12.45;7.75;;;;;;;;;;5039770;28;20049;-83
2022/09/11 13:41:14;;;;;;;11.70;8.18;;;;;;;;;;5045559;28;20468;-82
2022/09/11 13:43:43;;;;;;;13.95;7.82;;;;;;;;;;5044826;28;20587;-80
2022/09/11 13:46:15;;;;;;;12.13;7.40;;;;;;;;;;5046164;28;20056;-83
2022/09/11 13:48:42;;;;;;;11.65;6.95;;;;;;;;;;5042670;28;20060;-83
2022/09/11 13:51:13;;;;;;;11.25;7.28;;;;;;;;;;5048170;28;20108;-83
2022/09/11 13:53:41;;;;;;;15.55;7.25;;;;;;;;;;5043886;28;20504;-84
2022/09/11 13:56:26;;;;;;;14.07;8.07;;;;;;;;;;5043052;28;20049;-81
2022/09/11 13:58:53;;;;;;;10.10;6.95;;;;;;;;;;5047659;28;20056;-83
2022/09/11 14:01:20;;;;;;;12.90;8.20;;;;;;;;;;5037922;28;20053;-84
2022/09/11 14:03:47;;;;;;;12.95;7.80;;;;;;;;;;5036930;28;20040;-84
2022/09/11 14:06:16;;;;;;;14.85;8.05;;;;;;;;;;5064860;28;20045;-83
2022/09/11 14:08:47;;;;;;;11.48;7.65;;;;;;;;;;5046309;28;20057;-83
2022/09/11 14:11:23;;;;;;;11.93;7.63;;;;;;;;;;5046965;28;20402;-83
2022/09/11 14:14:08;;;;;;;15.43;8.15;;;;;;;;;;5047249;28;20049;-82
2022/09/11 14:16:47;;;;;;;14.07;8.77;;;;;;;;;;5029112;28;20076;-83
2022/09/11 14:19:14;;;;;;;11.93;7.43;;;;;;;;;;5026794;28;20054;-82
2022/09/11 14:21:42;;;;;;;10.02;6.13;;;;;;;;;;5032621;28;20040;-82
2022/09/11 14:24:31;;;;;;;10.57;6.50;;;;;;;;;;5062121;28;20045;-81
2022/09/11 14:27:03;;;;;;;10.80;6.32;;;;;;;;;;5056263;28;20093;-81
2022/09/11 14:29:30;;;;;;;9.85;5.90;;;;;;;;;;5070510;28;20105;-81
2022/09/11 14:32:15;;;;;;;8.38;5.45;;;;;;;;;;5054349;28;20057;-80
2022/09/11 14:34:44;;;;;;;8.27;5.22;;;;;;;;;;5023303;28;20084;-80
2022/09/11 14:37:11;;;;;;;9.23;4.95;;;;;;;;;;5048784;28;20053;-81
2022/09/11 14:39:42;;;;;;;8.90;5.03;;;;;;;;;;5048945;28;20090;-83
2022/09/11 14:42:13;;;;;;;7.03;3.88;;;;;;;;;;5066563;28;20079;-84
2022/09/11 14:44:40;;;;;;;5.65;3.92;;;;;;;;;;5068833;28;20055;-84
2022/09/11 14:47:14;;;;;;;5.07;3.75;;;;;;;;;;5067174;28;20048;-84